Time;durP1;ratioP1;P1;durP2;ratioP2;P2;SDS_P1;SDS_P2;PMS_P1;PMS_P2;Temp;Humidity;BMP_temperature;BMP_pressure;BME280_temperature;BME280_humidity;BME280_pressure;Samples;Min_cycle;Max_cycle;Signal;HPM_P1;HPM_P2
2021/01/19 00:02:08;;;;;;;52.78;19.55;;;-9.50;47.30;;;;;;5093106;28;20032;-79
2021/01/19 00:04:34;;;;;;;57.63;21.42;;;-9.60;47.40;;;;;;5067237;28;20491;-78
2021/01/19 00:07:01;;;;;;;50.03;17.45;;;-9.60;47.50;;;;;;5085665;28;20563;-79
2021/01/19 00:09:27;;;;;;;44.50;16.92;;;-9.70;47.50;;;;;;5083139;28;20504;-80
2021/01/19 00:11:53;;;;;;;50.03;17.98;;;-9.70;47.70;;;;;;5083394;28;20029;-80
2021/01/19 00:14:19;;;;;;;47.40;19.02;;;-9.60;47.70;;;;;;5084128;28;20108;-79
2021/01/19 00:16:44;;;;;;;43.95;18.63;;;-9.70;47.70;;;;;;5085154;28;20510;-80
2021/01/19 00:19:10;;;;;;;48.55;17.40;;;-9.70;47.80;;;;;;5082241;28;20355;-80
2021/01/19 00:21:36;;;;;;;46.47;17.48;;;-9.70;47.90;;;;;;5085009;28;20073;-80
2021/01/19 00:24:03;;;;;;;45.15;16.13;;;-9.70;47.90;;;;;;5083212;28;20523;-79
2021/01/19 00:26:29;;;;;;;43.00;16.88;;;-9.80;47.80;;;;;;5065465;28;20024;-79
2021/01/19 00:28:55;;;;;;;48.67;18.05;;;-9.80;48.00;;;;;;5085034;28;20035;-79
2021/01/19 00:31:21;;;;;;;44.45;17.63;;;-9.90;48.10;;;;;;5082967;28;20028;-80
2021/01/19 00:33:51;;;;;;;45.17;18.27;;;-9.90;48.20;;;;;;5083555;28;20055;-81
2021/01/19 00:36:17;;;;;;;46.67;18.20;;;-10.00;48.30;;;;;;5086176;28;20079;-80
2021/01/19 00:38:43;;;;;;;50.03;18.02;;;-10.00;48.40;;;;;;5083722;28;20036;-79
2021/01/19 00:41:09;;;;;;;50.75;17.52;;;-10.00;48.50;;;;;;5082812;28;20032;-81
2021/01/19 00:43:34;;;;;;;44.42;16.35;;;-9.90;48.70;;;;;;5084738;28;20035;-80
2021/01/19 00:46:00;;;;;;;47.60;18.10;;;-9.90;48.60;;;;;;5082637;28;20095;-81
2021/01/19 00:48:26;;;;;;;42.97;17.67;;;-9.90;48.70;;;;;;5083514;28;20035;-79
2021/01/19 00:50:52;;;;;;;43.88;16.17;;;-9.90;48.80;;;;;;5084386;28;20038;-80
2021/01/19 00:53:18;;;;;;;53.80;17.55;;;-9.80;48.80;;;;;;5082434;28;20024;-80
2021/01/19 00:55:44;;;;;;;43.13;16.67;;;-9.80;48.80;;;;;;5083764;28;20024;-80
2021/01/19 00:58:09;;;;;;;40.28;15.82;;;-9.80;48.80;;;;;;5083143;28;20090;-81
2021/01/19 01:00:41;;;;;;;46.75;17.65;;;-9.80;48.70;;;;;;5091550;28;20046;-80
2021/01/19 01:03:07;;;;;;;40.40;16.38;;;-9.80;48.80;;;;;;5094295;28;20031;-81
2021/01/19 01:05:37;;;;;;;42.65;15.90;;;-9.80;48.90;;;;;;5094354;28;20114;-81
2021/01/19 01:08:03;;;;;;;36.72;15.40;;;-9.80;49.00;;;;;;5094446;28;20341;-81
2021/01/19 01:10:29;;;;;;;37.92;16.10;;;-9.80;49.00;;;;;;5094618;28;20381;-82
2021/01/19 01:12:55;;;;;;;46.38;17.83;;;-9.90;49.00;;;;;;5091483;28;20427;-81
2021/01/19 01:15:37;;;;;;;44.67;17.10;;;-9.90;49.10;;;;;;5094517;28;20032;-81
2021/01/19 01:18:10;;;;;;;46.65;16.88;;;-9.90;49.20;;;;;;5094420;28;20028;-81
2021/01/19 01:20:36;;;;;;;44.70;16.55;;;-9.90;49.20;;;;;;5095213;28;20055;-81
2021/01/19 01:23:03;;;;;;;45.10;16.77;;;-9.90;49.30;;;;;;5076598;28;20099;-81
2021/01/19 01:25:29;;;;;;;47.97;17.25;;;-9.90;49.30;;;;;;5094459;28;20382;-81
2021/01/19 01:27:54;;;;;;;47.17;18.15;;;-9.80;49.40;;;;;;5075800;28;20069;-81
2021/01/19 01:30:20;;;;;;;50.95;18.48;;;-9.80;49.40;;;;;;5094292;28;20032;-82
2021/01/19 01:32:51;;;;;;;50.85;19.70;;;-9.80;49.40;;;;;;5094010;28;20377;-81
2021/01/19 01:35:21;;;;;;;43.22;16.30;;;-9.80;49.40;;;;;;5094120;28;20500;-81
2021/01/19 01:37:53;;;;;;;49.72;18.27;;;-9.90;49.40;;;;;;5094068;28;20028;-82
2021/01/19 01:40:22;;;;;;;46.20;16.98;;;-9.80;49.50;;;;;;5094096;28;20350;-82
2021/01/19 01:42:48;;;;;;;40.28;17.33;;;-9.90;49.40;;;;;;5094029;28;20157;-81
2021/01/19 01:45:20;;;;;;;46.50;17.10;;;-9.90;49.50;;;;;;5075612;28;20027;-81
2021/01/19 01:47:50;;;;;;;41.30;16.80;;;-9.90;49.60;;;;;;5093986;28;20020;-81
2021/01/19 01:50:17;;;;;;;49.83;18.30;;;-9.90;49.60;;;;;;5093681;28;20035;-81
2021/01/19 01:52:46;;;;;;;40.70;13.93;;;-9.90;50.20;;;;;;5094891;28;20020;-80
2021/01/19 01:55:14;;;;;;;40.13;16.63;;;-10.00;49.60;;;;;;5093541;28;20327;-82
2021/01/19 01:57:42;;;;;;;49.35;17.52;;;-10.00;49.70;;;;;;5093448;28;20028;-80
2021/01/19 02:00:10;;;;;;;47.80;17.17;;;-10.00;49.80;;;;;;5093767;28;20028;-81
2021/01/19 02:02:50;;;;;;;43.35;17.20;;;-10.10;49.80;;;;;;5093468;28;20075;-80
2021/01/19 02:05:16;;;;;;;39.55;16.48;;;-10.10;50.00;;;;;;5075453;28;20024;-81
2021/01/19 02:07:50;;;;;;;41.55;17.77;;;-10.10;50.00;;;;;;5093929;28;20573;-81
2021/01/19 02:10:34;;;;;;;40.13;17.05;;;-10.00;50.10;;;;;;5092807;28;20076;-79
2021/01/19 02:13:02;;;;;;;46.63;18.17;;;-10.00;50.10;;;;;;5093348;28;20030;-80
2021/01/19 02:15:38;;;;;;;43.85;16.90;;;-10.00;50.00;;;;;;5093496;28;20088;-80
2021/01/19 02:18:27;;;;;;;39.05;16.63;;;-10.00;50.10;;;;;;5093370;28;20043;-79
2021/01/19 02:21:26;;;;;;;45.60;17.17;;;-10.00;50.10;;;;;;5093837;28;20240;-81
2021/01/19 02:24:16;;;;;;;41.85;18.23;;;-10.00;50.20;;;;;;5093793;28;20073;-82
2021/01/19 02:27:09;;;;;;;45.28;18.23;;;-9.90;50.10;;;;;;5095695;28;20047;-81
2021/01/19 02:30:13;;;;;;;42.80;16.63;;;-9.90;50.30;;;;;;5093737;28;20040;-82
2021/01/19 02:32:45;;;;;;;45.78;17.30;;;-9.90;50.20;;;;;;5093495;28;20123;-82
2021/01/19 02:35:15;;;;;;;45.28;16.27;;;-9.80;50.20;;;;;;5093824;28;20120;-81
2021/01/19 02:38:09;;;;;;;44.38;16.50;;;-9.80;50.20;;;;;;5093443;28;20032;-81
2021/01/19 02:40:34;;;;;;;46.03;18.20;;;-9.70;50.20;;;;;;5093360;28;20020;-80
2021/01/19 02:43:25;;;;;;;59.00;20.00;;;-9.70;50.00;;;;;;5093708;28;20028;-81
2021/01/19 02:45:52;;;;;;;44.38;15.73;;;-9.70;50.20;;;;;;5075142;28;20103;-81
2021/01/19 02:48:18;;;;;;;38.13;17.00;;;-9.70;50.20;;;;;;5075192;28;20032;-81
2021/01/19 02:50:44;;;;;;;39.95;15.43;;;-9.60;50.00;;;;;;5075135;28;20381;-81
2021/01/19 02:53:13;;;;;;;45.78;17.48;;;-9.70;50.00;;;;;;5092891;28;20052;-82
2021/01/19 02:55:42;;;;;;;42.20;16.52;;;-9.70;50.10;;;;;;5094460;28;20050;-80
2021/01/19 02:58:35;;;;;;;40.65;15.73;;;-9.70;50.20;;;;;;5094307;28;20501;-80
2021/01/19 03:01:19;;;;;;;44.80;17.10;;;-9.70;50.00;;;;;;5092610;28;20063;-79
2021/01/19 03:03:48;;;;;;;37.60;15.00;;;-9.70;50.20;;;;;;5093143;28;20048;-80
2021/01/19 03:06:17;;;;;;;46.42;17.98;;;-9.60;50.10;;;;;;5097085;28;20264;-80
2021/01/19 03:08:44;;;;;;;47.42;17.52;;;-9.60;50.10;;;;;;5096794;28;20032;-80
2021/01/19 03:11:19;;;;;;;55.25;17.73;;;-9.60;50.20;;;;;;5096779;28;20072;-80
2021/01/19 03:13:48;;;;;;;40.00;15.30;;;-9.60;50.20;;;;;;5096999;28;20032;-80
2021/01/19 03:16:16;;;;;;;43.80;16.63;;;-9.60;50.00;;;;;;5096610;28;20042;-79
2021/01/19 03:18:47;;;;;;;48.67;16.83;;;-9.60;49.90;;;;;;5096603;28;20031;-81
2021/01/19 03:21:13;;;;;;;41.13;16.30;;;-9.70;49.80;;;;;;5096805;28;20114;-82
2021/01/19 03:23:44;;;;;;;48.13;16.05;;;-9.70;49.80;;;;;;5096665;28;20373;-83
2021/01/19 03:26:11;;;;;;;41.08;17.15;;;-9.80;50.00;;;;;;5078928;28;20024;-81
2021/01/19 03:28:38;;;;;;;42.42;16.17;;;-9.80;50.10;;;;;;5096707;28;20055;-80
2021/01/19 03:31:14;;;;;;;46.75;16.75;;;-9.80;50.10;;;;;;5095811;28;20024;-80
2021/01/19 03:33:40;;;;;;;40.17;16.70;;;-9.90;50.10;;;;;;5096129;28;20024;-79
2021/01/19 03:36:06;;;;;;;48.55;18.52;;;-9.90;50.20;;;;;;5096006;28;20020;-78
2021/01/19 03:38:32;;;;;;;50.97;17.92;;;-9.90;50.30;;;;;;5058030;28;20024;-80
2021/01/19 03:40:58;;;;;;;45.20;15.98;;;-9.90;50.10;;;;;;5076092;28;20035;-81
2021/01/19 03:43:24;;;;;;;46.97;16.42;;;-9.90;50.20;;;;;;5075592;28;20120;-81
2021/01/19 03:45:50;;;;;;;44.13;16.65;;;-10.00;50.10;;;;;;5075886;28;20024;-81
2021/01/19 03:48:16;;;;;;;46.92;17.10;;;-10.00;50.10;;;;;;5074048;28;20028;-81
2021/01/19 03:50:42;;;;;;;52.33;17.17;;;-10.00;50.10;;;;;;5075109;28;20036;-82
2021/01/19 03:53:07;;;;;;;45.83;17.17;;;-10.00;50.10;;;;;;5075599;28;20027;-81
2021/01/19 03:55:33;;;;;;;38.72;15.70;;;-10.10;50.00;;;;;;5075732;28;20024;-81
2021/01/19 03:57:59;;;;;;;33.83;14.75;;;-10.10;50.00;;;;;;5077094;28;20124;-80
2021/01/19 04:00:25;;;;;;;51.47;17.02;;;-10.20;50.00;;;;;;5058238;28;20111;-82
2021/01/19 04:02:51;;;;;;;43.55;16.70;;;-10.20;50.00;;;;;;5057717;28;20048;-81
2021/01/19 04:05:17;;;;;;;47.15;15.93;;;-10.30;50.00;;;;;;5075342;28;20111;-83
2021/01/19 04:07:43;;;;;;;49.22;17.70;;;-10.40;50.20;;;;;;5075149;28;20028;-80
2021/01/19 04:10:11;;;;;;;62.80;19.73;;;-10.40;50.20;;;;;;5075290;28;20040;-82
2021/01/19 04:12:37;;;;;;;49.72;17.85;;;-10.40;50.20;;;;;;5075538;28;20474;-81
2021/01/19 04:15:04;;;;;;;44.78;17.45;;;-10.50;50.20;;;;;;5075307;28;20033;-82
2021/01/19 04:17:30;;;;;;;46.17;15.88;;;-10.50;50.20;;;;;;5075083;28;20017;-81
2021/01/19 04:19:57;;;;;;;47.92;17.98;;;-10.50;50.20;;;;;;5075267;28;20496;-80
2021/01/19 04:22:24;;;;;;;41.38;16.52;;;-10.50;50.30;;;;;;5074085;28;20551;-81
2021/01/19 04:24:55;;;;;;;40.78;16.27;;;-10.50;50.30;;;;;;5075363;28;20378;-82
2021/01/19 04:27:21;;;;;;;43.20;16.58;;;-10.50;50.40;;;;;;5078130;28;20060;-81
2021/01/19 04:29:49;;;;;;;43.60;17.08;;;-10.60;50.30;;;;;;5078340;28;20043;-81
2021/01/19 04:32:15;;;;;;;50.13;18.65;;;-10.60;50.40;;;;;;5075190;28;20020;-81
2021/01/19 04:34:41;;;;;;;52.33;17.95;;;-10.50;50.50;;;;;;5075134;28;20462;-82
2021/01/19 04:37:12;;;;;;;53.08;19.25;;;-10.50;50.60;;;;;;5074989;28;20119;-81
2021/01/19 04:39:39;;;;;;;44.40;17.08;;;-10.50;50.50;;;;;;5073650;28;20081;-81
2021/01/19 04:42:05;;;;;;;42.00;17.85;;;-10.50;50.30;;;;;;5075035;28;20017;-81
2021/01/19 04:44:32;;;;;;;54.35;18.80;;;-10.60;50.20;;;;;;5074417;28;20029;-80
2021/01/19 04:46:58;;;;;;;55.15;19.15;;;-10.60;50.40;;;;;;5078512;28;20028;-81
2021/01/19 04:49:25;;;;;;;53.38;18.17;;;-10.60;50.40;;;;;;5094969;28;20032;-81
2021/01/19 04:51:52;;;;;;;51.40;17.40;;;-10.60;50.50;;;;;;5094577;28;20016;-81
2021/01/19 04:54:21;;;;;;;53.25;21.02;;;-10.60;50.40;;;;;;5094622;28;20028;-82
2021/01/19 04:57:18;;;;;;;52.03;19.52;;;-10.60;50.40;;;;;;5094896;28;20017;-81
2021/01/19 04:59:52;;;;;;;56.15;18.13;;;-10.60;50.60;;;;;;5094408;28;20093;-80
2021/01/19 05:02:40;;;;;;;48.22;18.60;;;-10.50;50.50;;;;;;5094834;28;20024;-81
2021/01/19 05:05:35;;;;;;;44.45;16.88;;;-10.50;50.50;;;;;;5094330;28;20024;-80
2021/01/19 05:08:18;;;;;;;50.20;17.55;;;-10.50;50.40;;;;;;5075865;28;20044;-79
2021/01/19 05:11:01;;;;;;;45.35;15.95;;;-10.50;50.30;;;;;;5080219;28;20043;-79
2021/01/19 05:13:41;;;;;;;42.05;17.17;;;-10.50;50.20;;;;;;5084308;28;20024;-79
2021/01/19 05:16:12;;;;;;;46.00;17.98;;;-10.50;50.10;;;;;;5084235;28;20023;-81
2021/01/19 05:18:38;;;;;;;50.05;18.45;;;-10.50;50.10;;;;;;5083392;28;20166;-81
2021/01/19 05:21:06;;;;;;;37.95;16.63;;;-10.50;50.30;;;;;;5083438;28;20524;-78
2021/01/19 05:23:32;;;;;;;47.63;17.48;;;-10.50;50.40;;;;;;5085093;28;20020;-79
2021/01/19 05:26:03;;;;;;;40.40;16.35;;;-10.50;50.20;;;;;;5064789;28;20565;-80
2021/01/19 05:28:37;;;;;;;45.75;17.48;;;-10.50;50.20;;;;;;5082422;28;20377;-80
2021/01/19 05:31:23;;;;;;;44.37;17.27;;;-10.40;50.30;;;;;;5083810;28;20089;-78
2021/01/19 05:34:08;;;;;;;44.75;17.15;;;-10.40;50.40;;;;;;5076781;28;20110;-81
2021/01/19 05:36:33;;;;;;;46.83;18.10;;;-10.40;50.30;;;;;;5049178;28;20051;-81
2021/01/19 05:39:00;;;;;;;46.78;17.67;;;-10.40;50.40;;;;;;5087929;28;20462;-81
2021/01/19 05:41:40;;;;;;;48.95;18.25;;;-10.40;50.40;;;;;;5093812;28;20377;-81
2021/01/19 05:44:09;;;;;;;48.55;17.17;;;-10.30;50.30;;;;;;5093660;28;20020;-81
2021/01/19 05:46:35;;;;;;;50.35;18.52;;;-10.30;50.30;;;;;;5094170;28;20166;-81
2021/01/19 05:49:02;;;;;;;56.22;19.85;;;-10.30;50.10;;;;;;5093907;28;20028;-80
2021/01/19 05:51:31;;;;;;;61.17;21.35;;;-10.30;50.10;;;;;;5093820;28;20416;-81
2021/01/19 05:53:59;;;;;;;44.90;15.88;;;-10.30;50.20;;;;;;5084174;28;20036;-80
2021/01/19 05:56:27;;;;;;;47.28;18.42;;;-10.30;50.10;;;;;;5082542;28;20025;-80
2021/01/19 05:58:53;;;;;;;43.75;15.93;;;-10.30;50.00;;;;;;5075270;28;20128;-82
2021/01/19 06:01:34;;;;;;;48.03;19.02;;;-10.30;50.10;;;;;;5072937;28;20028;-81
2021/01/19 06:04:02;;;;;;;54.28;18.60;;;-10.40;50.00;;;;;;5073402;28;20028;-83
2021/01/19 06:06:33;;;;;;;50.58;17.23;;;-10.30;50.10;;;;;;5073085;28;20098;-82
2021/01/19 06:09:04;;;;;;;42.53;17.75;;;-10.30;50.10;;;;;;5073054;28;20384;-84
2021/01/19 06:11:31;;;;;;;50.67;19.15;;;-10.30;50.30;;;;;;5073111;28;20110;-81
2021/01/19 06:13:57;;;;;;;49.25;18.02;;;-10.20;50.30;;;;;;5073290;28;20089;-82
2021/01/19 06:16:27;;;;;;;54.65;19.52;;;-10.10;50.30;;;;;;5055337;28;20060;-80
2021/01/19 06:18:55;;;;;;;47.17;18.40;;;-10.10;50.20;;;;;;5072212;28;20032;-81
2021/01/19 06:21:28;;;;;;;48.47;18.85;;;-10.10;50.10;;;;;;5073032;28;20024;-81
2021/01/19 06:23:57;;;;;;;50.97;19.85;;;-10.00;50.30;;;;;;5073361;28;20102;-81
2021/01/19 06:26:24;;;;;;;51.58;19.10;;;-9.90;50.30;;;;;;5054165;28;20112;-83
2021/01/19 06:28:50;;;;;;;52.47;21.88;;;-9.80;50.20;;;;;;5072944;28;20036;-82
2021/01/19 06:31:25;;;;;;;58.53;21.33;;;-9.80;50.10;;;;;;5072806;28;20028;-81
2021/01/19 06:33:51;;;;;;;;;;;-9.70;50.10;;;;;;5073407;28;20478;-84
2021/01/19 06:36:35;;;;;;;43.05;18.25;;;-9.60;49.90;;;;;;5072930;28;19911;-83
2021/01/19 06:39:01;;;;;;;49.22;18.55;;;-9.70;49.50;;;;;;5078640;28;20059;-83
2021/01/19 06:41:34;;;;;;;47.78;17.95;;;-9.60;49.80;;;;;;5087230;28;20071;-84
2021/01/19 06:44:06;;;;;;;52.90;19.63;;;-9.60;49.70;;;;;;5070339;28;20020;-80
2021/01/19 06:46:37;;;;;;;46.92;17.75;;;-9.50;49.70;;;;;;5086007;28;20710;-82
2021/01/19 06:49:06;;;;;;;45.78;18.58;;;-9.50;49.70;;;;;;5086691;28;20095;-80
2021/01/19 06:51:32;;;;;;;52.63;18.95;;;-9.50;49.70;;;;;;5067528;28;20025;-79
2021/01/19 06:54:07;;;;;;;52.25;18.02;;;-9.40;49.80;;;;;;5087376;28;20016;-81
2021/01/19 06:56:48;;;;;;;51.03;17.92;;;-9.30;49.60;;;;;;5087502;28;20372;-83
2021/01/19 06:59:25;;;;;;;54.25;17.55;;;-9.30;49.40;;;;;;5093114;28;20044;-80
2021/01/19 07:01:57;;;;;;;60.45;22.98;;;-9.30;49.30;;;;;;5093968;28;21146;-83
2021/01/19 07:04:25;;;;;;;55.20;19.83;;;-9.30;49.20;;;;;;5086535;28;20042;-84
2021/01/19 07:07:18;;;;;;;52.13;20.02;;;-9.30;49.80;;;;;;5085181;28;20020;-82
2021/01/19 07:10:05;;;;;;;45.22;18.33;;;-9.20;49.40;;;;;;5070236;28;20025;-81
2021/01/19 07:12:48;;;;;;;48.20;18.70;;;-9.20;49.30;;;;;;5070830;28;20020;-81
2021/01/19 07:15:16;;;;;;;53.88;21.60;;;-9.20;49.20;;;;;;5068240;28;20017;-83
2021/01/19 07:17:42;;;;;;;62.05;22.13;;;-9.10;49.20;;;;;;5085297;28;20514;-80
2021/01/19 07:20:19;;;;;;;42.58;17.73;;;-9.00;49.20;;;;;;5073022;28;20159;-79
2021/01/19 07:22:58;;;;;;;45.33;17.55;;;-8.90;49.10;;;;;;5085137;28;20042;-83
2021/01/19 07:25:25;;;;;;;50.13;17.83;;;-8.90;48.80;;;;;;5086787;28;20024;-81
2021/01/19 07:27:52;;;;;;;47.88;18.50;;;-8.90;48.90;;;;;;5087277;28;20051;-82
2021/01/19 07:30:23;;;;;;;53.90;19.15;;;-8.90;49.00;;;;;;5084996;28;20028;-82
2021/01/19 07:32:56;;;;;;;51.30;18.15;;;-8.70;49.20;;;;;;5086072;28;20028;-81
2021/01/19 07:35:24;;;;;;;42.65;17.08;;;-8.60;48.80;;;;;;5067424;28;20107;-81
2021/01/19 07:38:01;;;;;;;44.95;17.40;;;-8.50;48.80;;;;;;5084125;28;20020;-82
2021/01/19 07:40:32;;;;;;;32.83;14.93;;;-8.40;48.70;;;;;;5083865;28;20024;-82
2021/01/19 07:42:58;;;;;;;39.90;16.45;;;-8.30;48.40;;;;;;5085063;28;20378;-83
2021/01/19 07:45:31;;;;;;;48.38;17.10;;;-8.30;48.30;;;;;;5085885;28;20025;-81
2021/01/19 07:48:08;;;;;;;38.20;16.20;;;-8.20;48.20;;;;;;5084910;28;20035;-83
2021/01/19 07:50:44;;;;;;;38.08;16.23;;;-8.10;48.30;;;;;;5083828;28;20111;-82
2021/01/19 07:53:11;;;;;;;39.00;15.77;;;-7.90;48.40;;;;;;5083337;28;20078;-82
2021/01/19 07:55:44;;;;;;;46.92;18.10;;;-7.60;48.30;;;;;;5084164;28;20095;-82
2021/01/19 07:58:35;;;;;;;43.28;17.27;;;-7.30;48.20;;;;;;5085212;28;20044;-82
2021/01/19 08:01:01;;;;;;;42.20;17.20;;;-6.90;48.10;;;;;;5066481;28;20512;-80
2021/01/19 08:03:28;;;;;;;48.30;17.73;;;-6.50;48.10;;;;;;5083052;28;20020;-82
2021/01/19 08:05:54;;;;;;;43.67;18.05;;;-5.90;48.40;;;;;;5084945;28;20031;-80
2021/01/19 08:08:20;;;;;;;38.92;16.73;;;-5.30;48.60;;;;;;5084535;28;20017;-82
2021/01/19 08:10:57;;;;;;;36.97;16.17;;;-4.70;48.30;;;;;;5083150;28;20495;-81
2021/01/19 08:13:28;;;;;;;34.72;14.80;;;-4.20;47.20;;;;;;5084696;28;20103;-81
2021/01/19 08:16:05;;;;;;;41.55;17.00;;;-3.70;46.70;;;;;;5065079;28;20141;-81
2021/01/19 08:18:41;;;;;;;44.22;18.92;;;-3.10;45.90;;;;;;5082605;28;20027;-81
2021/01/19 08:21:08;;;;;;;40.95;18.25;;;-2.50;46.40;;;;;;5082755;28;20381;-81
2021/01/19 08:23:35;;;;;;;38.88;16.48;;;-1.70;45.70;;;;;;5084380;28;20024;-81
2021/01/19 08:26:12;;;;;;;39.25;18.45;;;-0.90;45.50;;;;;;5083680;28;20021;-83
2021/01/19 08:28:38;;;;;;;41.28;17.67;;;-0.20;43.20;;;;;;5092632;28;20056;-82
2021/01/19 08:31:26;;;;;;;41.33;17.95;;;0.30;42.40;;;;;;5093525;28;20059;-81
2021/01/19 08:34:23;;;;;;;36.15;17.13;;;0.80;41.30;;;;;;5095256;28;20031;-80
2021/01/19 08:36:51;;;;;;;36.67;18.30;;;1.30;40.70;;;;;;5092123;28;20020;-84
2021/01/19 08:39:17;;;;;;;39.60;18.55;;;1.90;40.70;;;;;;5067302;28;20029;-84
2021/01/19 08:41:46;;;;;;;42.00;19.30;;;2.10;39.70;;;;;;5083163;28;20092;-83
2021/01/19 08:44:16;;;;;;;38.85;18.55;;;2.40;38.90;;;;;;5067980;28;20115;-81
2021/01/19 08:46:43;;;;;;;44.88;20.85;;;2.70;38.00;;;;;;5083320;28;20027;-81
2021/01/19 08:49:10;;;;;;;47.75;21.63;;;2.90;37.50;;;;;;5056578;28;20489;-82
2021/01/19 08:51:37;;;;;;;44.17;22.25;;;3.20;37.20;;;;;;5076025;28;20110;-80
2021/01/19 08:54:46;;;;;;;59.17;27.15;;;3.60;36.70;;;;;;5084801;28;20032;-82
2021/01/19 08:57:23;;;;;;;39.38;20.23;;;3.90;35.40;;;;;;5045202;28;20039;-81
2021/01/19 08:59:54;;;;;;;36.78;18.92;;;4.10;34.80;;;;;;5075043;28;20052;-82
2021/01/19 09:02:29;;;;;;;37.00;18.73;;;4.00;34.60;;;;;;5056023;28;20496;-83
2021/01/19 09:04:59;;;;;;;36.50;18.02;;;4.20;34.60;;;;;;5077639;28;20036;-85
2021/01/19 09:07:42;;;;;;;31.25;16.48;;;4.40;33.50;;;;;;5077536;28;20086;-85
2021/01/19 09:10:18;;;;;;;38.22;18.80;;;4.50;33.00;;;;;;5070616;28;20040;-82
2021/01/19 09:12:44;;;;;;;34.40;18.98;;;4.60;33.50;;;;;;5074073;28;20029;-83
2021/01/19 09:15:14;;;;;;;36.30;18.45;;;4.60;32.50;;;;;;5074053;28;20139;-83
2021/01/19 09:17:40;;;;;;;41.17;20.15;;;4.50;31.70;;;;;;5056059;28;20033;-83
2021/01/19 09:20:08;;;;;;;41.65;18.48;;;4.50;31.70;;;;;;5073515;28;20082;-80
2021/01/19 09:22:36;;;;;;;44.95;19.17;;;4.70;31.70;;;;;;5056210;28;20034;-82
2021/01/19 09:25:03;;;;;;;42.63;20.35;;;5.00;31.60;;;;;;5073586;28;20466;-83
2021/01/19 09:27:29;;;;;;;38.55;18.38;;;5.40;31.60;;;;;;5073633;28;20030;-81
2021/01/19 09:30:17;;;;;;;38.08;20.73;;;6.10;31.40;;;;;;5073823;28;20112;-82
2021/01/19 09:32:44;;;;;;;48.60;23.83;;;6.80;30.70;;;;;;5055874;28;20028;-82
2021/01/19 09:35:16;;;;;;;42.70;23.95;;;7.50;31.00;;;;;;5075874;28;20033;-82
2021/01/19 09:37:42;;;;;;;43.80;22.98;;;8.20;30.50;;;;;;5067106;28;20480;-84
2021/01/19 09:40:09;;;;;;;38.03;21.95;;;8.70;30.00;;;;;;5075380;28;20023;-84
2021/01/19 09:42:40;;;;;;;41.97;22.67;;;9.10;29.40;;;;;;5094247;28;20028;-81
2021/01/19 09:45:10;;;;;;;40.67;22.17;;;9.40;28.80;;;;;;5094099;28;20026;-84
2021/01/19 09:47:40;;;;;;;34.97;21.25;;;9.50;28.50;;;;;;5094223;28;20078;-82
2021/01/19 09:50:10;;;;;;;42.42;22.35;;;9.50;28.00;;;;;;5075542;28;20065;-83
2021/01/19 09:52:43;;;;;;;39.97;23.55;;;9.40;27.70;;;;;;5076233;28;20053;-83
2021/01/19 09:55:10;;;;;;;38.95;21.58;;;9.40;27.70;;;;;;5095811;28;20028;-83
2021/01/19 09:57:36;;;;;;;44.92;22.55;;;9.60;27.60;;;;;;5097599;28;20023;-83
2021/01/19 10:00:05;;;;;;;38.05;22.45;;;9.60;27.40;;;;;;5093884;28;20043;-84
2021/01/19 10:02:32;;;;;;;38.45;22.52;;;9.60;27.10;;;;;;5093965;28;20024;-82
2021/01/19 10:05:03;;;;;;;41.40;23.20;;;9.60;27.00;;;;;;5093701;28;20036;-81
2021/01/19 10:07:30;;;;;;;46.15;24.88;;;9.70;27.00;;;;;;5091875;28;20035;-82
2021/01/19 10:10:13;;;;;;;46.95;25.60;;;10.00;26.90;;;;;;5093665;28;20362;-84
2021/01/19 10:12:44;;;;;;;55.15;32.10;;;10.40;26.40;;;;;;5093489;28;20055;-82
2021/01/19 10:15:21;;;;;;;56.60;30.65;;;10.80;26.50;;;;;;5075876;28;20039;-84
2021/01/19 10:17:47;;;;;;;46.75;24.65;;;11.20;26.50;;;;;;5093451;28;20502;-82
2021/01/19 10:20:15;;;;;;;42.25;24.20;;;11.60;26.40;;;;;;5093773;28;20131;-85
2021/01/19 10:22:48;;;;;;;57.83;32.13;;;12.00;26.20;;;;;;5093824;28;20070;-83
2021/01/19 10:25:28;;;;;;;54.00;30.48;;;12.20;25.70;;;;;;5074957;28;20047;-81
2021/01/19 10:27:59;;;;;;;39.58;25.00;;;12.60;25.50;;;;;;5093610;28;20031;-82
2021/01/19 10:30:35;;;;;;;35.15;22.15;;;13.10;25.50;;;;;;5093470;28;20032;-82
2021/01/19 10:33:06;;;;;;;36.90;23.10;;;13.30;25.00;;;;;;5075798;28;20062;-82
2021/01/19 10:35:37;;;;;;;35.85;21.60;;;13.40;24.70;;;;;;5093003;28;20024;-80
2021/01/19 10:38:09;;;;;;;33.83;21.13;;;13.70;24.80;;;;;;5093759;28;20020;-85
2021/01/19 10:40:38;;;;;;;37.17;23.17;;;13.90;24.40;;;;;;5075359;28;20077;-85
2021/01/19 10:43:20;;;;;;;43.35;25.90;;;14.00;24.20;;;;;;5075057;28;20373;-85
2021/01/19 10:45:46;;;;;;;38.90;23.23;;;13.60;23.60;;;;;;5093187;28;20027;-83
2021/01/19 10:48:19;;;;;;;40.25;25.05;;;13.40;24.00;;;;;;5092824;28;20430;-84
2021/01/19 10:50:47;;;;;;;45.42;26.58;;;13.50;23.90;;;;;;5092854;28;20380;-81
2021/01/19 10:53:33;;;;;;;44.33;24.42;;;13.60;24.10;;;;;;5091283;28;20028;-82
2021/01/19 10:56:00;;;;;;;37.97;22.73;;;13.80;23.80;;;;;;5092850;28;20032;-81
2021/01/19 10:58:29;;;;;;;37.50;23.25;;;13.50;23.80;;;;;;5091755;28;20110;-82
2021/01/19 11:00:56;;;;;;;41.33;23.52;;;13.10;23.70;;;;;;5091086;28;20044;-81
2021/01/19 11:03:24;;;;;;;34.00;20.67;;;13.20;23.90;;;;;;5091966;28;20024;-81
2021/01/19 11:06:08;;;;;;;32.58;21.33;;;13.40;23.80;;;;;;5094888;28;20024;-81
2021/01/19 11:08:33;;;;;;;33.80;20.13;;;13.30;23.30;;;;;;5092147;28;20493;-83
2021/01/19 11:10:59;;;;;;;39.45;22.02;;;13.20;23.30;;;;;;5093904;28;20081;-82
2021/01/19 11:13:32;;;;;;;36.42;23.05;;;12.70;23.20;;;;;;5093155;28;20029;-82
2021/01/19 11:16:03;;;;;;;33.35;20.00;;;11.80;23.00;;;;;;5061144;28;20028;-83
2021/01/19 11:18:30;;;;;;;36.78;22.48;;;11.30;23.40;;;;;;5072588;28;20021;-83
2021/01/19 11:21:36;;;;;;;39.22;21.33;;;11.20;23.70;;;;;;5074318;28;20029;-82
2021/01/19 11:24:30;;;;;;;31.98;19.30;;;11.30;23.70;;;;;;5053721;28;20422;-82
2021/01/19 11:26:58;;;;;;;29.05;17.73;;;11.30;23.60;;;;;;5049901;28;20041;-82
2021/01/19 11:33:36;;;;;;;32.05;18.88;;;11.40;23.60;;;;;;5062521;28;20467;-84
2021/01/19 11:39:56;;;;;;;38.08;20.95;;;12.00;23.60;;;;;;5076355;28;20413;-81
2021/01/19 11:45:45;;;;;;;34.50;20.15;;;12.00;23.40;;;;;;5075893;28;20055;-82
2021/01/19 11:51:39;;;;;;;42.72;25.75;;;11.90;23.40;;;;;;5076507;28;20039;-81
2021/01/19 12:02:03;;;;;;;46.72;26.48;;;12.00;23.60;;;;;;5033973;28;20127;-82
2021/01/19 12:08:05;;;;;;;37.65;21.45;;;12.70;23.40;;;;;;5035131;28;20036;-81
2021/01/19 12:13:52;;;;;;;36.88;21.33;;;12.40;22.90;;;;;;5035536;28;20044;-82
2021/01/19 12:19:40;;;;;;;36.47;22.38;;;11.60;22.70;;;;;;5035211;28;20084;-82
2021/01/19 12:25:29;;;;;;;45.58;24.38;;;10.60;22.90;;;;;;5035109;28;20425;-80
2021/01/19 12:31:17;;;;;;;35.85;18.95;;;10.20;23.20;;;;;;5034297;28;20095;-82
2021/01/19 12:33:43;;;;;;;36.70;18.08;;;9.90;23.30;;;;;;5034676;28;20557;-81
2021/01/19 12:36:14;;;;;;;29.95;16.13;;;9.60;23.20;;;;;;5034048;28;20125;-82
2021/01/19 12:38:41;;;;;;;32.00;17.67;;;9.40;23.20;;;;;;5033075;28;20057;-80
2021/01/19 12:41:08;;;;;;;28.02;16.27;;;9.20;23.30;;;;;;5034500;28;20386;-84
2021/01/19 12:43:34;;;;;;;30.30;16.55;;;9.00;23.30;;;;;;5048170;28;20016;-81
2021/01/19 12:46:17;;;;;;;27.13;15.63;;;8.80;23.30;;;;;;5041368;28;20525;-81
2021/01/19 12:48:44;;;;;;;32.40;15.73;;;8.50;23.30;;;;;;5034183;28;20132;-82
2021/01/19 12:51:21;;;;;;;27.25;13.32;;;8.40;23.50;;;;;;5037983;28;20152;-81
2021/01/19 12:53:49;;;;;;;24.85;13.50;;;8.20;23.30;;;;;;5042121;28;20481;-84
2021/01/19 12:56:21;;;;;;;26.33;15.55;;;7.80;23.40;;;;;;5041742;28;20024;-83
2021/01/19 12:58:52;;;;;;;24.80;13.02;;;7.60;23.50;;;;;;5051655;28;20047;-82
2021/01/19 13:01:20;;;;;;;28.33;14.15;;;7.40;23.60;;;;;;5063456;28;20036;-81
2021/01/19 13:03:53;;;;;;;28.80;15.07;;;7.10;23.60;;;;;;5063534;28;20100;-78
2021/01/19 13:06:21;;;;;;;24.43;13.80;;;6.80;23.80;;;;;;5065053;28;20531;-83
2021/01/19 13:08:56;;;;;;;30.67;16.35;;;6.80;24.10;;;;;;5064366;28;20070;-81
2021/01/19 13:11:22;;;;;;;21.52;12.65;;;6.90;24.20;;;;;;5064822;28;20071;-82
2021/01/19 13:13:53;;;;;;;31.00;15.40;;;7.10;24.30;;;;;;5062489;28;20013;-84
2021/01/19 13:16:19;;;;;;;33.25;15.65;;;7.20;24.20;;;;;;5060558;28;20029;-82
2021/01/19 13:18:50;;;;;;;27.70;15.38;;;7.20;24.20;;;;;;5063162;28;20052;-84
2021/01/19 13:21:17;;;;;;;23.60;13.65;;;7.30;24.20;;;;;;5061253;28;20025;-81
2021/01/19 13:23:44;;;;;;;23.13;13.52;;;7.20;24.00;;;;;;5054576;28;20064;-82
2021/01/19 13:26:10;;;;;;;24.67;13.98;;;7.00;24.00;;;;;;5053924;28;20025;-84